sensor_id;sensor_type;location;lat;lon;timestamp;temperature;humidity
30290;DHT22;17105;55.652;37.710;2022-09-09T04:30:46;12.10;73.20
30290;DHT22;17105;55.652;37.710;2022-09-09T04:31:21;12.20;73.60
30290;DHT22;17105;55.652;37.710;2022-09-09T04:31:58;12.20;73.70
30290;DHT22;17105;55.652;37.710;2022-09-09T04:32:32;12.20;73.60
30290;DHT22;17105;55.652;37.710;2022-09-09T04:33:09;12.20;73.50
30290;DHT22;17105;55.652;37.710;2022-09-09T04:33:44;12.20;73.40
30290;DHT22;17105;55.652;37.710;2022-09-09T04:34:16;12.20;73.10
30290;DHT22;17105;55.652;37.710;2022-09-09T04:34:53;12.20;73.00
30290;DHT22;17105;55.652;37.710;2022-09-09T04:35:27;12.20;72.90
30290;DHT22;17105;55.652;37.710;2022-09-09T04:36:03;12.20;72.90
30290;DHT22;17105;55.652;37.710;2022-09-09T04:36:37;12.20;72.90
30290;DHT22;17105;55.652;37.710;2022-09-09T04:37:12;12.30;72.90
30290;DHT22;17105;55.652;37.710;2022-09-09T04:37:46;12.30;72.80
30290;DHT22;17105;55.652;37.710;2022-09-09T04:38:21;12.30;72.70
30290;DHT22;17105;55.652;37.710;2022-09-09T04:38:56;12.30;72.70
30290;DHT22;17105;55.652;37.710;2022-09-09T04:39:33;12.30;72.90
30290;DHT22;17105;55.652;37.710;2022-09-09T04:40:09;12.30;72.80
30290;DHT22;17105;55.652;37.710;2022-09-09T04:40:46;12.30;72.80
30290;DHT22;17105;55.652;37.710;2022-09-09T04:41:21;12.30;72.80
30290;DHT22;17105;55.652;37.710;2022-09-09T04:41:57;12.30;72.70
30290;DHT22;17105;55.652;37.710;2022-09-09T04:42:34;12.40;72.70
30290;DHT22;17105;55.652;37.710;2022-09-09T04:43:21;12.40;72.50
30290;DHT22;17105;55.652;37.710;2022-09-09T04:43:56;12.40;72.40
30290;DHT22;17105;55.652;37.710;2022-09-09T04:44:33;12.40;72.50
30290;DHT22;17105;55.652;37.710;2022-09-09T04:45:11;12.50;72.70
30290;DHT22;17105;55.652;37.710;2022-09-09T04:45:47;12.40;72.70
30290;DHT22;17105;55.652;37.710;2022-09-09T04:46:25;12.50;72.60
30290;DHT22;17105;55.652;37.710;2022-09-09T04:47:02;12.50;72.30
30290;DHT22;17105;55.652;37.710;2022-09-09T04:47:37;12.50;72.00
30290;DHT22;17105;55.652;37.710;2022-09-09T04:48:12;12.50;71.90
30290;DHT22;17105;55.652;37.710;2022-09-09T04:48:49;12.50;71.80
30290;DHT22;17105;55.652;37.710;2022-09-09T04:49:23;12.50;71.80
30290;DHT22;17105;55.652;37.710;2022-09-09T04:49:59;12.50;71.80
30290;DHT22;17105;55.652;37.710;2022-09-09T04:50:35;12.50;71.90
30290;DHT22;17105;55.652;37.710;2022-09-09T04:51:12;12.50;71.90
30290;DHT22;17105;55.652;37.710;2022-09-09T04:51:49;12.60;72.30
30290;DHT22;17105;55.652;37.710;2022-09-09T04:52:23;12.60;71.80
30290;DHT22;17105;55.652;37.710;2022-09-09T04:53:00;12.60;71.90
30290;DHT22;17105;55.652;37.710;2022-09-09T04:53:35;12.60;71.80
30290;DHT22;17105;55.652;37.710;2022-09-09T04:54:08;12.60;71.70
30290;DHT22;17105;55.652;37.710;2022-09-09T04:54:48;12.70;71.50
30290;DHT22;17105;55.652;37.710;2022-09-09T04:55:22;12.70;71.20
30290;DHT22;17105;55.652;37.710;2022-09-09T04:56:01;12.70;71.10
30290;DHT22;17105;55.652;37.710;2022-09-09T04:56:40;12.70;71.10
30290;DHT22;17105;55.652;37.710;2022-09-09T04:57:16;12.70;71.10
30290;DHT22;17105;55.652;37.710;2022-09-09T04:57:52;12.70;71.10
30290;DHT22;17105;55.652;37.710;2022-09-09T04:58:27;12.70;71.10
30290;DHT22;17105;55.652;37.710;2022-09-09T04:59:01;12.70;71.10
30290;DHT22;17105;55.652;37.710;2022-09-09T04:59:49;12.70;71.50
30290;DHT22;17105;55.652;37.710;2022-09-09T05:00:28;12.80;71.00
30290;DHT22;17105;55.652;37.710;2022-09-09T05:01:06;12.80;71.20
30290;DHT22;17105;55.652;37.710;2022-09-09T05:01:44;12.80;71.30
30290;DHT22;17105;55.652;37.710;2022-09-09T05:02:18;12.80;71.10
30290;DHT22;17105;55.652;37.710;2022-09-09T05:02:55;12.80;70.80
30290;DHT22;17105;55.652;37.710;2022-09-09T05:03:29;12.80;70.50
30290;DHT22;17105;55.652;37.710;2022-09-09T05:04:03;12.80;70.50
30290;DHT22;17105;55.652;37.710;2022-09-09T05:04:40;12.90;70.50
30290;DHT22;17105;55.652;37.710;2022-09-09T05:05:14;12.90;71.30
30290;DHT22;17105;55.652;37.710;2022-09-09T05:05:48;12.90;70.90
30290;DHT22;17105;55.652;37.710;2022-09-09T05:06:22;12.90;71.30
30290;DHT22;17105;55.652;37.710;2022-09-09T05:07:00;12.90;71.40
30290;DHT22;17105;55.652;37.710;2022-09-09T05:07:34;12.90;71.30
30290;DHT22;17105;55.652;37.710;2022-09-09T05:08:09;12.90;71.40
30290;DHT22;17105;55.652;37.710;2022-09-09T05:08:44;13.00;71.00
30290;DHT22;17105;55.652;37.710;2022-09-09T05:09:21;13.00;70.70
30290;DHT22;17105;55.652;37.710;2022-09-09T05:09:56;13.00;70.30
30290;DHT22;17105;55.652;37.710;2022-09-09T05:10:29;13.00;69.90
30290;DHT22;17105;55.652;37.710;2022-09-09T05:11:16;12.90;69.90
30290;DHT22;17105;55.652;37.710;2022-09-09T05:11:50;12.90;69.80
30290;DHT22;17105;55.652;37.710;2022-09-09T05:12:37;12.90;69.80
30290;DHT22;17105;55.652;37.710;2022-09-09T05:13:11;12.90;69.80
30290;DHT22;17105;55.652;37.710;2022-09-09T05:13:47;13.00;69.80
30290;DHT22;17105;55.652;37.710;2022-09-09T05:14:20;13.00;69.90
30290;DHT22;17105;55.652;37.710;2022-09-09T05:14:55;13.00;70.00
30290;DHT22;17105;55.652;37.710;2022-09-09T05:15:31;13.00;69.80
30290;DHT22;17105;55.652;37.710;2022-09-09T05:16:07;12.90;69.60
30290;DHT22;17105;55.652;37.710;2022-09-09T05:16:45;13.00;69.60
30290;DHT22;17105;55.652;37.710;2022-09-09T05:17:20;13.00;69.50
30290;DHT22;17105;55.652;37.710;2022-09-09T05:17:56;13.00;69.20
30290;DHT22;17105;55.652;37.710;2022-09-09T05:18:35;13.00;69.00
30290;DHT22;17105;55.652;37.710;2022-09-09T05:19:11;13.00;69.00
30290;DHT22;17105;55.652;37.710;2022-09-09T05:19:55;13.00;69.10
30290;DHT22;17105;55.652;37.710;2022-09-09T05:20:30;13.00;68.90
30290;DHT22;17105;55.652;37.710;2022-09-09T05:21:06;13.00;68.70
30290;DHT22;17105;55.652;37.710;2022-09-09T05:21:41;13.00;68.50
30290;DHT22;17105;55.652;37.710;2022-09-09T05:22:19;13.10;68.90
30290;DHT22;17105;55.652;37.710;2022-09-09T05:22:53;13.10;68.30
30290;DHT22;17105;55.652;37.710;2022-09-09T05:23:30;13.10;68.30
30290;DHT22;17105;55.652;37.710;2022-09-09T05:24:05;13.10;68.20
30290;DHT22;17105;55.652;37.710;2022-09-09T05:24:40;13.10;68.50
30290;DHT22;17105;55.652;37.710;2022-09-09T05:25:16;13.10;68.70
30290;DHT22;17105;55.652;37.710;2022-09-09T05:25:56;13.20;68.60
30290;DHT22;17105;55.652;37.710;2022-09-09T05:26:31;13.20;68.60
30290;DHT22;17105;55.652;37.710;2022-09-09T05:27:07;13.20;68.60
30290;DHT22;17105;55.652;37.710;2022-09-09T05:27:45;13.30;68.70
30290;DHT22;17105;55.652;37.710;2022-09-09T05:28:20;13.30;68.70
30290;DHT22;17105;55.652;37.710;2022-09-09T05:28:53;13.30;68.60
30290;DHT22;17105;55.652;37.710;2022-09-09T05:29:29;13.40;68.60
30290;DHT22;17105;55.652;37.710;2022-09-09T05:30:07;13.40;69.00
30290;DHT22;17105;55.652;37.710;2022-09-09T05:30:44;13.40;68.30
30290;DHT22;17105;55.652;37.710;2022-09-09T05:31:19;13.40;68.10
30290;DHT22;17105;55.652;37.710;2022-09-09T05:31:56;13.40;68.00
30290;DHT22;17105;55.652;37.710;2022-09-09T05:32:31;13.50;67.80
30290;DHT22;17105;55.652;37.710;2022-09-09T05:33:08;13.50;68.00
30290;DHT22;17105;55.652;37.710;2022-09-09T05:33:45;13.50;67.90
30290;DHT22;17105;55.652;37.710;2022-09-09T05:34:20;13.60;68.00
30290;DHT22;17105;55.652;37.710;2022-09-09T05:34:55;13.60;68.00
30290;DHT22;17105;55.652;37.710;2022-09-09T05:35:29;13.60;68.00
30290;DHT22;17105;55.652;37.710;2022-09-09T05:36:08;13.60;67.70
30290;DHT22;17105;55.652;37.710;2022-09-09T05:36:42;13.70;67.60
30290;DHT22;17105;55.652;37.710;2022-09-09T05:37:18;13.70;67.40
30290;DHT22;17105;55.652;37.710;2022-09-09T05:37:52;13.70;67.10
30290;DHT22;17105;55.652;37.710;2022-09-09T05:38:25;13.80;67.00
30290;DHT22;17105;55.652;37.710;2022-09-09T05:39:02;13.70;66.90
30290;DHT22;17105;55.652;37.710;2022-09-09T05:39:36;13.80;66.50
30290;DHT22;17105;55.652;37.710;2022-09-09T05:40:11;13.80;66.50
30290;DHT22;17105;55.652;37.710;2022-09-09T05:40:47;13.80;66.30
30290;DHT22;17105;55.652;37.710;2022-09-09T05:41:21;13.80;66.20
30290;DHT22;17105;55.652;37.710;2022-09-09T05:41:59;13.80;66.10
30290;DHT22;17105;55.652;37.710;2022-09-09T05:42:35;13.90;65.90
30290;DHT22;17105;55.652;37.710;2022-09-09T05:43:12;13.90;65.70
30290;DHT22;17105;55.652;37.710;2022-09-09T05:43:46;13.90;65.70
30290;DHT22;17105;55.652;37.710;2022-09-09T05:44:22;13.90;65.70
30290;DHT22;17105;55.652;37.710;2022-09-09T05:45:00;14.00;65.60
30290;DHT22;17105;55.652;37.710;2022-09-09T05:45:33;14.00;65.50
30290;DHT22;17105;55.652;37.710;2022-09-09T05:46:11;14.10;65.40
30290;DHT22;17105;55.652;37.710;2022-09-09T05:46:47;14.20;65.20
30290;DHT22;17105;55.652;37.710;2022-09-09T05:47:22;14.20;64.90
30290;DHT22;17105;55.652;37.710;2022-09-09T05:47:55;14.20;64.60
30290;DHT22;17105;55.652;37.710;2022-09-09T05:48:30;14.30;64.30
30290;DHT22;17105;55.652;37.710;2022-09-09T05:49:06;14.40;64.20
30290;DHT22;17105;55.652;37.710;2022-09-09T05:49:41;14.50;64.60
30290;DHT22;17105;55.652;37.710;2022-09-09T05:50:18;14.50;64.40
30290;DHT22;17105;55.652;37.710;2022-09-09T05:50:53;14.60;64.20
30290;DHT22;17105;55.652;37.710;2022-09-09T05:51:28;14.60;63.90
30290;DHT22;17105;55.652;37.710;2022-09-09T05:52:07;14.60;63.30
30290;DHT22;17105;55.652;37.710;2022-09-09T05:52:41;14.70;62.90
30290;DHT22;17105;55.652;37.710;2022-09-09T05:53:18;14.60;62.70
30290;DHT22;17105;55.652;37.710;2022-09-09T05:53:53;14.70;62.90
30290;DHT22;17105;55.652;37.710;2022-09-09T05:54:28;14.70;62.70
30290;DHT22;17105;55.652;37.710;2022-09-09T05:55:06;14.60;62.40
30290;DHT22;17105;55.652;37.710;2022-09-09T05:55:41;14.60;62.20
30290;DHT22;17105;55.652;37.710;2022-09-09T05:56:17;14.60;61.80
30290;DHT22;17105;55.652;37.710;2022-09-09T05:56:54;14.60;61.50
30290;DHT22;17105;55.652;37.710;2022-09-09T05:57:27;14.60;61.60
30290;DHT22;17105;55.652;37.710;2022-09-09T06:39:07;15.90;56.00
30290;DHT22;17105;55.652;37.710;2022-09-09T06:39:46;15.90;56.50
30290;DHT22;17105;55.652;37.710;2022-09-09T06:40:23;16.00;56.20
30290;DHT22;17105;55.652;37.710;2022-09-09T06:40:57;16.20;55.70
30290;DHT22;17105;55.652;37.710;2022-09-09T06:41:32;16.30;55.30
30290;DHT22;17105;55.652;37.710;2022-09-09T06:42:08;16.50;55.10
30290;DHT22;17105;55.652;37.710;2022-09-09T06:43:05;16.60;54.80
30290;DHT22;17105;55.652;37.710;2022-09-09T06:43:45;16.80;54.20
30290;DHT22;17105;55.652;37.710;2022-09-09T06:44:19;16.90;54.00
30290;DHT22;17105;55.652;37.710;2022-09-09T06:44:55;16.90;53.70
30290;DHT22;17105;55.652;37.710;2022-09-09T06:45:38;16.90;53.20
30290;DHT22;17105;55.652;37.710;2022-09-09T06:46:15;16.90;52.90
30290;DHT22;17105;55.652;37.710;2022-09-09T06:46:52;16.90;52.50
30290;DHT22;17105;55.652;37.710;2022-09-09T06:47:29;16.90;52.20
30290;DHT22;17105;55.652;37.710;2022-09-09T06:48:04;16.80;52.10
30290;DHT22;17105;55.652;37.710;2022-09-09T06:48:40;16.80;52.20
30290;DHT22;17105;55.652;37.710;2022-09-09T06:49:17;16.80;52.20
30290;DHT22;17105;55.652;37.710;2022-09-09T06:49:52;16.70;52.20
30290;DHT22;17105;55.652;37.710;2022-09-09T06:50:26;16.60;52.00
30290;DHT22;17105;55.652;37.710;2022-09-09T06:51:03;16.60;52.00
30290;DHT22;17105;55.652;37.710;2022-09-09T06:51:37;16.50;51.90
30290;DHT22;17105;55.652;37.710;2022-09-09T06:52:18;16.40;52.00
30290;DHT22;17105;55.652;37.710;2022-09-09T06:52:53;16.40;52.20
30290;DHT22;17105;55.652;37.710;2022-09-09T06:53:27;16.30;52.20
30290;DHT22;17105;55.652;37.710;2022-09-09T06:54:03;16.30;52.30
30290;DHT22;17105;55.652;37.710;2022-09-09T06:54:38;16.20;52.20
30290;DHT22;17105;55.652;37.710;2022-09-09T06:55:11;16.30;52.10
30290;DHT22;17105;55.652;37.710;2022-09-09T06:55:50;16.20;51.80
30290;DHT22;17105;55.652;37.710;2022-09-09T06:56:24;16.20;51.70
30290;DHT22;17105;55.652;37.710;2022-09-09T06:57:02;16.20;51.60
30290;DHT22;17105;55.652;37.710;2022-09-09T06:57:56;16.10;51.50
30290;DHT22;17105;55.652;37.710;2022-09-09T06:58:32;16.10;51.40
30290;DHT22;17105;55.652;37.710;2022-09-09T06:59:07;16.10;51.50
30290;DHT22;17105;55.652;37.710;2022-09-09T06:59:42;16.00;51.40
30290;DHT22;17105;55.652;37.710;2022-09-09T07:00:18;16.00;51.30
30290;DHT22;17105;55.652;37.710;2022-09-09T07:00:52;15.90;51.30
30290;DHT22;17105;55.652;37.710;2022-09-09T07:01:30;15.90;51.40
30290;DHT22;17105;55.652;37.710;2022-09-09T07:02:08;15.90;51.60
30290;DHT22;17105;55.652;37.710;2022-09-09T07:02:45;15.90;51.60
30290;DHT22;17105;55.652;37.710;2022-09-09T07:03:20;15.80;51.60
30290;DHT22;17105;55.652;37.710;2022-09-09T07:03:55;15.80;51.60
30290;DHT22;17105;55.652;37.710;2022-09-09T07:04:32;15.80;51.60
30290;DHT22;17105;55.652;37.710;2022-09-09T07:05:07;15.70;51.70
30290;DHT22;17105;55.652;37.710;2022-09-09T07:05:54;15.70;51.80
30290;DHT22;17105;55.652;37.710;2022-09-09T07:06:33;15.70;52.00
30290;DHT22;17105;55.652;37.710;2022-09-09T07:07:09;15.60;52.10
30290;DHT22;17105;55.652;37.710;2022-09-09T07:07:46;15.60;52.00
30290;DHT22;17105;55.652;37.710;2022-09-09T07:08:23;15.60;51.90
30290;DHT22;17105;55.652;37.710;2022-09-09T07:09:01;15.60;52.00
30290;DHT22;17105;55.652;37.710;2022-09-09T07:09:39;15.50;52.10
30290;DHT22;17105;55.652;37.710;2022-09-09T07:10:14;15.50;52.20
30290;DHT22;17105;55.652;37.710;2022-09-09T07:10:50;15.50;52.20
30290;DHT22;17105;55.652;37.710;2022-09-09T07:11:26;15.40;52.30
30290;DHT22;17105;55.652;37.710;2022-09-09T07:12:03;15.40;52.30
30290;DHT22;17105;55.652;37.710;2022-09-09T07:12:41;15.40;52.50
30290;DHT22;17105;55.652;37.710;2022-09-09T07:13:18;15.40;52.70
30290;DHT22;17105;55.652;37.710;2022-09-09T07:13:54;15.40;52.90
30290;DHT22;17105;55.652;37.710;2022-09-09T07:14:28;15.40;53.10
30290;DHT22;17105;55.652;37.710;2022-09-09T07:15:13;15.30;53.40
30290;DHT22;17105;55.652;37.710;2022-09-09T07:15:50;15.30;53.30
30290;DHT22;17105;55.652;37.710;2022-09-09T07:16:26;15.30;53.30
30290;DHT22;17105;55.652;37.710;2022-09-09T07:17:04;15.30;53.30
30290;DHT22;17105;55.652;37.710;2022-09-09T07:17:44;15.30;53.20
30290;DHT22;17105;55.652;37.710;2022-09-09T07:18:20;15.30;53.10
30290;DHT22;17105;55.652;37.710;2022-09-09T07:18:55;15.30;53.20
30290;DHT22;17105;55.652;37.710;2022-09-09T07:19:31;15.30;53.30
30290;DHT22;17105;55.652;37.710;2022-09-09T07:20:07;15.30;53.40
30290;DHT22;17105;55.652;37.710;2022-09-09T07:20:42;15.30;53.60
30290;DHT22;17105;55.652;37.710;2022-09-09T07:21:18;15.30;53.60
30290;DHT22;17105;55.652;37.710;2022-09-09T07:21:54;15.30;53.50
30290;DHT22;17105;55.652;37.710;2022-09-09T07:22:29;15.30;53.50
30290;DHT22;17105;55.652;37.710;2022-09-09T07:23:05;15.30;53.60
30290;DHT22;17105;55.652;37.710;2022-09-09T07:23:38;15.40;53.80
30290;DHT22;17105;55.652;37.710;2022-09-09T07:24:14;15.40;53.80
30290;DHT22;17105;55.652;37.710;2022-09-09T07:24:49;15.40;53.80
30290;DHT22;17105;55.652;37.710;2022-09-09T07:25:24;15.40;53.60
30290;DHT22;17105;55.652;37.710;2022-09-09T07:26:02;15.50;53.50
30290;DHT22;17105;55.652;37.710;2022-09-09T07:26:38;15.50;53.30
30290;DHT22;17105;55.652;37.710;2022-09-09T07:27:13;15.50;52.60
30290;DHT22;17105;55.652;37.710;2022-09-09T07:27:48;15.40;52.30
30290;DHT22;17105;55.652;37.710;2022-09-09T07:28:22;15.50;52.20
30290;DHT22;17105;55.652;37.710;2022-09-09T07:28:57;15.50;52.30
30290;DHT22;17105;55.652;37.710;2022-09-09T07:29:31;15.60;52.40
30290;DHT22;17105;55.652;37.710;2022-09-09T07:30:10;15.60;52.40
30290;DHT22;17105;55.652;37.710;2022-09-09T07:30:55;15.80;52.20
30290;DHT22;17105;55.652;37.710;2022-09-09T07:31:33;16.00;52.10
30290;DHT22;17105;55.652;37.710;2022-09-09T07:32:06;16.20;51.90
30290;DHT22;17105;55.652;37.710;2022-09-09T07:32:44;16.30;51.60
30290;DHT22;17105;55.652;37.710;2022-09-09T07:33:18;16.40;51.40
30290;DHT22;17105;55.652;37.710;2022-09-09T07:33:52;16.50;51.20
30290;DHT22;17105;55.652;37.710;2022-09-09T07:34:27;16.50;51.10
30290;DHT22;17105;55.652;37.710;2022-09-09T07:35:04;16.50;51.10
30290;DHT22;17105;55.652;37.710;2022-09-09T07:35:41;16.50;50.80
30290;DHT22;17105;55.652;37.710;2022-09-09T07:36:17;16.50;50.70
30290;DHT22;17105;55.652;37.710;2022-09-09T07:36:55;16.50;50.40
30290;DHT22;17105;55.652;37.710;2022-09-09T07:37:30;16.40;50.40
30290;DHT22;17105;55.652;37.710;2022-09-09T07:38:04;16.40;50.40
30290;DHT22;17105;55.652;37.710;2022-09-09T07:38:41;16.40;50.40
30290;DHT22;17105;55.652;37.710;2022-09-09T07:39:16;16.30;50.40
30290;DHT22;17105;55.652;37.710;2022-09-09T07:39:55;16.30;50.50
30290;DHT22;17105;55.652;37.710;2022-09-09T07:40:30;16.30;50.60
30290;DHT22;17105;55.652;37.710;2022-09-09T07:41:05;16.30;50.50
30290;DHT22;17105;55.652;37.710;2022-09-09T07:41:47;16.20;50.50
30290;DHT22;17105;55.652;37.710;2022-09-09T07:42:23;16.20;50.60
30290;DHT22;17105;55.652;37.710;2022-09-09T07:42:58;16.20;50.70
30290;DHT22;17105;55.652;37.710;2022-09-09T07:43:32;16.30;50.90
30290;DHT22;17105;55.652;37.710;2022-09-09T07:44:07;16.30;51.00
30290;DHT22;17105;55.652;37.710;2022-09-09T07:44:46;16.40;51.00
30290;DHT22;17105;55.652;37.710;2022-09-09T07:45:21;16.50;51.10
30290;DHT22;17105;55.652;37.710;2022-09-09T07:45:57;16.60;51.20
30290;DHT22;17105;55.652;37.710;2022-09-09T07:46:32;16.70;50.80
30290;DHT22;17105;55.652;37.710;2022-09-09T07:47:08;16.80;50.60
30290;DHT22;17105;55.652;37.710;2022-09-09T07:47:48;16.80;50.10
30290;DHT22;17105;55.652;37.710;2022-09-09T07:48:23;16.90;49.80
30290;DHT22;17105;55.652;37.710;2022-09-09T07:48:59;16.90;49.50
30290;DHT22;17105;55.652;37.710;2022-09-09T07:49:35;16.90;49.50
30290;DHT22;17105;55.652;37.710;2022-09-09T07:50:11;16.90;49.40
30290;DHT22;17105;55.652;37.710;2022-09-09T07:50:46;16.90;49.40
30290;DHT22;17105;55.652;37.710;2022-09-09T07:51:22;16.90;49.30
30290;DHT22;17105;55.652;37.710;2022-09-09T07:51:58;16.90;49.30
30290;DHT22;17105;55.652;37.710;2022-09-09T07:52:33;16.90;49.20
30290;DHT22;17105;55.652;37.710;2022-09-09T07:53:10;16.80;49.20
30290;DHT22;17105;55.652;37.710;2022-09-09T07:53:43;16.80;49.20
30290;DHT22;17105;55.652;37.710;2022-09-09T07:54:19;16.80;49.20
30290;DHT22;17105;55.652;37.710;2022-09-09T07:54:58;16.70;49.10
30290;DHT22;17105;55.652;37.710;2022-09-09T07:55:34;16.70;49.10
30290;DHT22;17105;55.652;37.710;2022-09-09T07:56:11;16.60;49.10
30290;DHT22;17105;55.652;37.710;2022-09-09T07:56:46;16.60;49.00
30290;DHT22;17105;55.652;37.710;2022-09-09T07:57:21;16.50;49.20
30290;DHT22;17105;55.652;37.710;2022-09-09T07:57:58;16.40;49.00
30290;DHT22;17105;55.652;37.710;2022-09-09T07:58:32;16.40;49.10
30290;DHT22;17105;55.652;37.710;2022-09-09T07:59:11;16.40;49.20
30290;DHT22;17105;55.652;37.710;2022-09-09T07:59:47;16.40;49.30
30290;DHT22;17105;55.652;37.710;2022-09-09T08:00:22;16.40;49.40
30290;DHT22;17105;55.652;37.710;2022-09-09T08:01:05;16.40;49.60
30290;DHT22;17105;55.652;37.710;2022-09-09T08:01:39;16.40;49.60
30290;DHT22;17105;55.652;37.710;2022-09-09T08:02:17;16.40;49.70
30290;DHT22;17105;55.652;37.710;2022-09-09T08:02:54;16.50;49.70
30290;DHT22;17105;55.652;37.710;2022-09-09T08:03:29;16.50;49.80
30290;DHT22;17105;55.652;37.710;2022-09-09T08:04:06;16.60;49.60
30290;DHT22;17105;55.652;37.710;2022-09-09T08:04:41;16.60;49.60
30290;DHT22;17105;55.652;37.710;2022-09-09T08:05:16;16.60;49.70
30290;DHT22;17105;55.652;37.710;2022-09-09T08:06:01;16.70;49.70
30290;DHT22;17105;55.652;37.710;2022-09-09T08:06:37;16.70;49.60
30290;DHT22;17105;55.652;37.710;2022-09-09T08:07:13;16.70;49.60
30290;DHT22;17105;55.652;37.710;2022-09-09T08:07:56;16.80;49.50
30290;DHT22;17105;55.652;37.710;2022-09-09T08:08:29;16.80;49.20
30290;DHT22;17105;55.652;37.710;2022-09-09T08:09:06;16.80;49.20
30290;DHT22;17105;55.652;37.710;2022-09-09T08:09:42;16.80;49.30
30290;DHT22;17105;55.652;37.710;2022-09-09T08:10:39;16.80;48.90
30290;DHT22;17105;55.652;37.710;2022-09-09T08:11:15;16.80;48.90
30290;DHT22;17105;55.652;37.710;2022-09-09T08:11:49;16.80;48.70
30290;DHT22;17105;55.652;37.710;2022-09-09T08:12:24;16.80;48.70
30290;DHT22;17105;55.652;37.710;2022-09-09T08:12:58;16.80;48.80
30290;DHT22;17105;55.652;37.710;2022-09-09T08:13:51;16.70;48.70
30290;DHT22;17105;55.652;37.710;2022-09-09T08:14:33;16.70;48.70
30290;DHT22;17105;55.652;37.710;2022-09-09T08:15:09;16.60;48.70
30290;DHT22;17105;55.652;37.710;2022-09-09T08:15:43;16.60;48.80
30290;DHT22;17105;55.652;37.710;2022-09-09T08:16:21;16.60;48.80
30290;DHT22;17105;55.652;37.710;2022-09-09T08:16:56;16.50;48.70
30290;DHT22;17105;55.652;37.710;2022-09-09T08:17:33;16.50;48.80
30290;DHT22;17105;55.652;37.710;2022-09-09T08:18:11;16.40;48.80
30290;DHT22;17105;55.652;37.710;2022-09-09T08:18:49;16.40;48.80
30290;DHT22;17105;55.652;37.710;2022-09-09T08:19:24;16.30;48.90
30290;DHT22;17105;55.652;37.710;2022-09-09T08:20:07;16.30;48.90
30290;DHT22;17105;55.652;37.710;2022-09-09T08:20:43;16.30;48.90
30290;DHT22;17105;55.652;37.710;2022-09-09T08:21:21;16.20;49.00
30290;DHT22;17105;55.652;37.710;2022-09-09T08:21:56;16.20;49.10
30290;DHT22;17105;55.652;37.710;2022-09-09T08:22:33;16.20;49.20
30290;DHT22;17105;55.652;37.710;2022-09-09T08:23:10;16.20;49.10
30290;DHT22;17105;55.652;37.710;2022-09-09T08:23:45;16.10;49.10
30290;DHT22;17105;55.652;37.710;2022-09-09T08:24:30;16.10;49.10
30290;DHT22;17105;55.652;37.710;2022-09-09T08:25:08;16.10;49.30
30290;DHT22;17105;55.652;37.710;2022-09-09T08:25:46;16.10;49.30
30290;DHT22;17105;55.652;37.710;2022-09-09T08:26:23;16.20;49.50
30290;DHT22;17105;55.652;37.710;2022-09-09T08:27:00;16.20;49.40
30290;DHT22;17105;55.652;37.710;2022-09-09T08:27:35;16.20;49.60
30290;DHT22;17105;55.652;37.710;2022-09-09T08:28:11;16.20;49.60
30290;DHT22;17105;55.652;37.710;2022-09-09T08:28:46;16.20;49.40
30290;DHT22;17105;55.652;37.710;2022-09-09T08:29:20;16.20;49.30
30290;DHT22;17105;55.652;37.710;2022-09-09T08:29:54;16.20;49.10
30290;DHT22;17105;55.652;37.710;2022-09-09T08:30:29;16.20;48.70
30290;DHT22;17105;55.652;37.710;2022-09-09T08:31:08;16.10;48.50
30290;DHT22;17105;55.652;37.710;2022-09-09T08:31:43;16.10;48.30
30290;DHT22;17105;55.652;37.710;2022-09-09T08:32:18;16.10;47.90
30290;DHT22;17105;55.652;37.710;2022-09-09T08:32:52;16.00;47.70
30290;DHT22;17105;55.652;37.710;2022-09-09T08:33:31;16.00;47.80
30290;DHT22;17105;55.652;37.710;2022-09-09T08:34:06;16.00;47.80
30290;DHT22;17105;55.652;37.710;2022-09-09T08:34:42;15.90;47.80
30290;DHT22;17105;55.652;37.710;2022-09-09T08:35:27;15.90;47.80
30290;DHT22;17105;55.652;37.710;2022-09-09T08:36:09;15.90;48.00
30290;DHT22;17105;55.652;37.710;2022-09-09T08:36:44;15.80;47.90
30290;DHT22;17105;55.652;37.710;2022-09-09T08:37:20;15.80;47.80
30290;DHT22;17105;55.652;37.710;2022-09-09T08:37:54;15.80;47.90
30290;DHT22;17105;55.652;37.710;2022-09-09T08:38:27;15.70;48.00
30290;DHT22;17105;55.652;37.710;2022-09-09T08:39:04;15.70;48.10
30290;DHT22;17105;55.652;37.710;2022-09-09T08:39:37;15.70;48.20
30290;DHT22;17105;55.652;37.710;2022-09-09T08:40:19;15.70;48.20
30290;DHT22;17105;55.652;37.710;2022-09-09T08:41:09;15.60;48.40
30290;DHT22;17105;55.652;37.710;2022-09-09T08:42:13;15.70;48.70
30290;DHT22;17105;55.652;37.710;2022-09-09T08:42:54;15.70;48.80
30290;DHT22;17105;55.652;37.710;2022-09-09T08:43:40;15.80;48.90
30290;DHT22;17105;55.652;37.710;2022-09-09T08:50:16;16.00;48.50
30290;DHT22;17105;55.652;37.710;2022-09-09T08:50:54;16.00;48.60
30290;DHT22;17105;55.652;37.710;2022-09-09T08:51:39;16.10;48.80
30290;DHT22;17105;55.652;37.710;2022-09-09T08:52:17;16.10;48.80
30290;DHT22;17105;55.652;37.710;2022-09-09T08:52:57;16.10;48.80
30290;DHT22;17105;55.652;37.710;2022-09-09T08:53:42;16.10;48.70
30290;DHT22;17105;55.652;37.710;2022-09-09T08:54:20;16.10;48.70
30290;DHT22;17105;55.652;37.710;2022-09-09T08:55:28;16.20;48.70
30290;DHT22;17105;55.652;37.710;2022-09-09T08:56:11;16.30;48.30
30290;DHT22;17105;55.652;37.710;2022-09-09T08:56:55;16.30;48.10
30290;DHT22;17105;55.652;37.710;2022-09-09T08:57:31;16.40;48.30
30290;DHT22;17105;55.652;37.710;2022-09-09T08:58:12;16.50;48.30
30290;DHT22;17105;55.652;37.710;2022-09-09T08:58:52;16.50;48.20
30290;DHT22;17105;55.652;37.710;2022-09-09T08:59:39;16.60;47.50
30290;DHT22;17105;55.652;37.710;2022-09-09T09:00:16;16.60;47.30
30290;DHT22;17105;55.652;37.710;2022-09-09T09:01:09;16.70;47.40
30290;DHT22;17105;55.652;37.710;2022-09-09T09:01:57;16.70;47.40
30290;DHT22;17105;55.652;37.710;2022-09-09T09:02:46;16.80;47.40
30290;DHT22;17105;55.652;37.710;2022-09-09T09:03:28;16.80;47.50
30290;DHT22;17105;55.652;37.710;2022-09-09T09:04:21;16.80;47.20
30290;DHT22;17105;55.652;37.710;2022-09-09T09:05:14;16.80;47.00
30290;DHT22;17105;55.652;37.710;2022-09-09T09:06:01;16.80;47.10
30290;DHT22;17105;55.652;37.710;2022-09-09T09:06:54;16.80;47.30
30290;DHT22;17105;55.652;37.710;2022-09-09T09:07:47;16.80;47.40
30290;DHT22;17105;55.652;37.710;2022-09-09T09:08:33;16.80;47.50
30290;DHT22;17105;55.652;37.710;2022-09-09T09:09:16;16.90;47.70